sensor_id;sensor_type;location;lat;lon;timestamp;temperature;humidity
17202;DHT22;8717;53.588;10.176;2023-03-01T00:02:19;-2.20;99.90
17202;DHT22;8717;53.588;10.176;2023-03-01T00:04:47;-2.30;99.90
17202;DHT22;8717;53.588;10.176;2023-03-01T00:07:14;-2.30;99.90
17202;DHT22;8717;53.588;10.176;2023-03-01T00:09:41;-2.20;99.90
17202;DHT22;8717;53.588;10.176;2023-03-01T00:12:11;-2.30;99.90
17202;DHT22;8717;53.588;10.176;2023-03-01T00:14:38;-2.30;99.90
17202;DHT22;8717;53.588;10.176;2023-03-01T00:17:06;-2.30;99.90
17202;DHT22;8717;53.588;10.176;2023-03-01T00:19:32;-2.30;99.90
17202;DHT22;8717;53.588;10.176;2023-03-01T00:22:01;-2.30;99.90
17202;DHT22;8717;53.588;10.176;2023-03-01T00:24:28;-2.40;99.90
17202;DHT22;8717;53.588;10.176;2023-03-01T00:26:55;-2.40;99.90
17202;DHT22;8717;53.588;10.176;2023-03-01T00:29:23;-2.40;99.90
17202;DHT22;8717;53.588;10.176;2023-03-01T00:31:50;-2.40;99.90
17202;DHT22;8717;53.588;10.176;2023-03-01T00:34:17;-2.40;99.90
17202;DHT22;8717;53.588;10.176;2023-03-01T00:36:44;-2.40;99.90
17202;DHT22;8717;53.588;10.176;2023-03-01T00:39:14;-2.40;99.90
17202;DHT22;8717;53.588;10.176;2023-03-01T00:41:41;-2.40;99.90
17202;DHT22;8717;53.588;10.176;2023-03-01T00:44:08;-2.40;99.90
17202;DHT22;8717;53.588;10.176;2023-03-01T00:46:35;-2.50;99.90
17202;DHT22;8717;53.588;10.176;2023-03-01T00:49:03;-2.50;99.90
17202;DHT22;8717;53.588;10.176;2023-03-01T00:51:30;-2.50;99.90
17202;DHT22;8717;53.588;10.176;2023-03-01T00:53:59;-2.50;99.90
17202;DHT22;8717;53.588;10.176;2023-03-01T00:56:28;-2.50;99.90
17202;DHT22;8717;53.588;10.176;2023-03-01T00:58:55;-2.60;99.90
17202;DHT22;8717;53.588;10.176;2023-03-01T01:01:25;-2.60;99.90
17202;DHT22;8717;53.588;10.176;2023-03-01T01:03:55;-2.60;99.90
17202;DHT22;8717;53.588;10.176;2023-03-01T01:06:24;-2.60;99.90
17202;DHT22;8717;53.588;10.176;2023-03-01T01:08:53;-2.60;99.90
17202;DHT22;8717;53.588;10.176;2023-03-01T01:11:21;-2.70;99.90
17202;DHT22;8717;53.588;10.176;2023-03-01T01:13:50;-2.70;99.90
17202;DHT22;8717;53.588;10.176;2023-03-01T01:16:19;-2.70;99.90
17202;DHT22;8717;53.588;10.176;2023-03-01T01:18:46;-2.70;99.90
17202;DHT22;8717;53.588;10.176;2023-03-01T01:21:14;-2.70;99.90
17202;DHT22;8717;53.588;10.176;2023-03-01T01:23:43;-2.70;99.90
17202;DHT22;8717;53.588;10.176;2023-03-01T01:26:11;-2.70;99.90
17202;DHT22;8717;53.588;10.176;2023-03-01T01:28:38;-2.70;99.90
17202;DHT22;8717;53.588;10.176;2023-03-01T01:31:06;-2.70;99.90
17202;DHT22;8717;53.588;10.176;2023-03-01T01:33:34;-2.60;99.90
17202;DHT22;8717;53.588;10.176;2023-03-01T01:36:01;-2.60;99.90
17202;DHT22;8717;53.588;10.176;2023-03-01T01:38:27;-2.60;99.90
17202;DHT22;8717;53.588;10.176;2023-03-01T01:40:54;-2.60;99.90
17202;DHT22;8717;53.588;10.176;2023-03-01T01:43:23;-2.60;99.90
17202;DHT22;8717;53.588;10.176;2023-03-01T01:45:51;-2.50;99.90
17202;DHT22;8717;53.588;10.176;2023-03-01T01:48:22;-2.50;99.90
17202;DHT22;8717;53.588;10.176;2023-03-01T01:50:55;-2.60;99.90
17202;DHT22;8717;53.588;10.176;2023-03-01T01:53:22;-2.60;99.90
17202;DHT22;8717;53.588;10.176;2023-03-01T01:55:52;-2.60;99.90
17202;DHT22;8717;53.588;10.176;2023-03-01T01:58:24;-2.60;99.90
17202;DHT22;8717;53.588;10.176;2023-03-01T02:00:53;-2.60;99.90
17202;DHT22;8717;53.588;10.176;2023-03-01T02:03:24;-2.70;99.90
17202;DHT22;8717;53.588;10.176;2023-03-01T02:05:58;-2.70;99.90
17202;DHT22;8717;53.588;10.176;2023-03-01T02:08:29;-2.70;99.90
17202;DHT22;8717;53.588;10.176;2023-03-01T02:10:57;-2.70;99.90
17202;DHT22;8717;53.588;10.176;2023-03-01T02:13:25;-2.70;99.90
17202;DHT22;8717;53.588;10.176;2023-03-01T02:15:54;-2.80;99.90
17202;DHT22;8717;53.588;10.176;2023-03-01T02:18:23;-2.80;99.90
17202;DHT22;8717;53.588;10.176;2023-03-01T02:21:00;-2.80;99.90
17202;DHT22;8717;53.588;10.176;2023-03-01T02:23:31;-2.80;99.90
17202;DHT22;8717;53.588;10.176;2023-03-01T02:26:02;-2.80;99.90
17202;DHT22;8717;53.588;10.176;2023-03-01T02:28:35;-2.70;99.90
17202;DHT22;8717;53.588;10.176;2023-03-01T02:31:03;-2.80;99.90
17202;DHT22;8717;53.588;10.176;2023-03-01T02:33:48;-2.80;99.90
17202;DHT22;8717;53.588;10.176;2023-03-01T02:36:18;-2.80;99.90
17202;DHT22;8717;53.588;10.176;2023-03-01T02:38:46;-2.80;99.90
17202;DHT22;8717;53.588;10.176;2023-03-01T02:41:15;-2.80;99.90
17202;DHT22;8717;53.588;10.176;2023-03-01T02:43:44;-2.80;99.90
17202;DHT22;8717;53.588;10.176;2023-03-01T02:46:15;-2.80;99.90
17202;DHT22;8717;53.588;10.176;2023-03-01T02:48:44;-2.80;99.90
17202;DHT22;8717;53.588;10.176;2023-03-01T02:51:25;-2.80;99.90
17202;DHT22;8717;53.588;10.176;2023-03-01T02:53:59;-2.80;99.90
17202;DHT22;8717;53.588;10.176;2023-03-01T03:00:23;-2.70;99.90
17202;DHT22;8717;53.588;10.176;2023-03-01T03:02:52;-2.70;99.90
17202;DHT22;8717;53.588;10.176;2023-03-01T03:05:24;-2.70;99.90
17202;DHT22;8717;53.588;10.176;2023-03-01T03:07:54;-2.70;99.90
17202;DHT22;8717;53.588;10.176;2023-03-01T03:10:23;-2.70;99.90
17202;DHT22;8717;53.588;10.176;2023-03-01T03:12:51;-2.70;99.90
17202;DHT22;8717;53.588;10.176;2023-03-01T03:15:20;-2.70;99.90
17202;DHT22;8717;53.588;10.176;2023-03-01T03:17:48;-2.70;99.90
17202;DHT22;8717;53.588;10.176;2023-03-01T03:20:18;-2.70;99.90
17202;DHT22;8717;53.588;10.176;2023-03-01T03:22:45;-2.70;99.90
17202;DHT22;8717;53.588;10.176;2023-03-01T03:25:12;-2.60;99.90
17202;DHT22;8717;53.588;10.176;2023-03-01T03:27:41;-2.60;99.90
17202;DHT22;8717;53.588;10.176;2023-03-01T03:30:12;-2.50;99.90
17202;DHT22;8717;53.588;10.176;2023-03-01T03:32:42;-2.50;99.90
17202;DHT22;8717;53.588;10.176;2023-03-01T03:35:16;-2.40;99.90
17202;DHT22;8717;53.588;10.176;2023-03-01T03:37:42;-2.40;99.90
17202;DHT22;8717;53.588;10.176;2023-03-01T03:40:28;-2.30;99.90
17202;DHT22;8717;53.588;10.176;2023-03-01T03:42:55;-2.20;99.90
17202;DHT22;8717;53.588;10.176;2023-03-01T03:45:22;-2.20;99.90
17202;DHT22;8717;53.588;10.176;2023-03-01T03:47:50;-2.10;99.90
17202;DHT22;8717;53.588;10.176;2023-03-01T03:50:17;-2.00;99.90
17202;DHT22;8717;53.588;10.176;2023-03-01T03:52:44;-2.00;99.90
17202;DHT22;8717;53.588;10.176;2023-03-01T03:55:11;-1.90;99.90
17202;DHT22;8717;53.588;10.176;2023-03-01T03:57:39;-1.80;99.90
17202;DHT22;8717;53.588;10.176;2023-03-01T04:00:09;-1.70;99.90
17202;DHT22;8717;53.588;10.176;2023-03-01T04:02:38;-1.70;99.90
17202;DHT22;8717;53.588;10.176;2023-03-01T04:05:08;-1.60;99.90
17202;DHT22;8717;53.588;10.176;2023-03-01T04:07:35;-1.50;99.90
17202;DHT22;8717;53.588;10.176;2023-03-01T04:10:04;-1.50;99.90
17202;DHT22;8717;53.588;10.176;2023-03-01T04:12:32;-1.40;99.90
17202;DHT22;8717;53.588;10.176;2023-03-01T04:14:59;-1.30;99.90
17202;DHT22;8717;53.588;10.176;2023-03-01T04:17:26;-1.20;99.90
17202;DHT22;8717;53.588;10.176;2023-03-01T04:19:53;-1.20;99.90
17202;DHT22;8717;53.588;10.176;2023-03-01T04:22:21;-1.20;99.90
17202;DHT22;8717;53.588;10.176;2023-03-01T04:24:48;-1.10;99.90
17202;DHT22;8717;53.588;10.176;2023-03-01T04:27:15;-1.00;99.90
17202;DHT22;8717;53.588;10.176;2023-03-01T04:29:42;-1.00;99.90
17202;DHT22;8717;53.588;10.176;2023-03-01T04:32:08;-0.90;99.90
17202;DHT22;8717;53.588;10.176;2023-03-01T04:34:35;-0.90;99.90
17202;DHT22;8717;53.588;10.176;2023-03-01T04:37:02;-0.80;99.90
17202;DHT22;8717;53.588;10.176;2023-03-01T04:39:30;-0.80;99.90
17202;DHT22;8717;53.588;10.176;2023-03-01T04:41:58;-0.70;99.90
17202;DHT22;8717;53.588;10.176;2023-03-01T04:44:25;-0.60;99.90
17202;DHT22;8717;53.588;10.176;2023-03-01T04:46:51;-0.60;99.90
17202;DHT22;8717;53.588;10.176;2023-03-01T04:49:18;-0.50;99.90
17202;DHT22;8717;53.588;10.176;2023-03-01T04:51:45;-0.50;99.90
17202;DHT22;8717;53.588;10.176;2023-03-01T04:54:11;-0.50;99.90
17202;DHT22;8717;53.588;10.176;2023-03-01T04:56:39;-0.40;99.90
17202;DHT22;8717;53.588;10.176;2023-03-01T04:59:06;-0.40;99.90
17202;DHT22;8717;53.588;10.176;2023-03-01T05:01:40;-0.30;99.90
17202;DHT22;8717;53.588;10.176;2023-03-01T05:04:13;-0.30;99.90
17202;DHT22;8717;53.588;10.176;2023-03-01T05:06:44;-0.20;99.90
17202;DHT22;8717;53.588;10.176;2023-03-01T05:09:23;-0.10;99.90
17202;DHT22;8717;53.588;10.176;2023-03-01T05:11:54;-0.20;99.90
17202;DHT22;8717;53.588;10.176;2023-03-01T05:14:21;-0.10;99.90
17202;DHT22;8717;53.588;10.176;2023-03-01T05:16:48;-0.10;99.90
17202;DHT22;8717;53.588;10.176;2023-03-01T05:19:15;-0.10;99.90
17202;DHT22;8717;53.588;10.176;2023-03-01T05:21:42;0.00;99.90
17202;DHT22;8717;53.588;10.176;2023-03-01T05:24:22;0.00;99.90
17202;DHT22;8717;53.588;10.176;2023-03-01T05:26:49;0.00;99.90
17202;DHT22;8717;53.588;10.176;2023-03-01T05:29:18;0.00;99.90
17202;DHT22;8717;53.588;10.176;2023-03-01T05:31:51;0.10;99.90
17202;DHT22;8717;53.588;10.176;2023-03-01T05:34:18;0.20;99.90
17202;DHT22;8717;53.588;10.176;2023-03-01T05:36:48;0.20;99.90
17202;DHT22;8717;53.588;10.176;2023-03-01T05:39:19;0.20;99.90
17202;DHT22;8717;53.588;10.176;2023-03-01T05:41:46;0.20;99.90
17202;DHT22;8717;53.588;10.176;2023-03-01T05:44:13;0.20;99.90
17202;DHT22;8717;53.588;10.176;2023-03-01T05:46:42;0.20;99.90
17202;DHT22;8717;53.588;10.176;2023-03-01T05:49:10;0.30;99.90
17202;DHT22;8717;53.588;10.176;2023-03-01T05:51:38;0.30;99.90
17202;DHT22;8717;53.588;10.176;2023-03-01T05:54:05;0.30;99.90
17202;DHT22;8717;53.588;10.176;2023-03-01T05:56:32;0.30;99.90
17202;DHT22;8717;53.588;10.176;2023-03-01T05:59:00;0.30;99.90
17202;DHT22;8717;53.588;10.176;2023-03-01T06:01:27;0.30;99.90
17202;DHT22;8717;53.588;10.176;2023-03-01T06:03:56;0.30;99.90
17202;DHT22;8717;53.588;10.176;2023-03-01T06:06:23;0.30;99.90
17202;DHT22;8717;53.588;10.176;2023-03-01T06:08:50;0.40;99.90
17202;DHT22;8717;53.588;10.176;2023-03-01T06:11:17;0.30;99.90
17202;DHT22;8717;53.588;10.176;2023-03-01T06:13:44;0.30;99.90
17202;DHT22;8717;53.588;10.176;2023-03-01T06:16:11;0.30;99.90
17202;DHT22;8717;53.588;10.176;2023-03-01T06:18:39;0.20;99.90
17202;DHT22;8717;53.588;10.176;2023-03-01T06:21:08;0.30;99.90
17202;DHT22;8717;53.588;10.176;2023-03-01T06:23:35;0.20;99.90
17202;DHT22;8717;53.588;10.176;2023-03-01T06:26:05;0.20;99.90
17202;DHT22;8717;53.588;10.176;2023-03-01T06:28:32;0.20;99.90
17202;DHT22;8717;53.588;10.176;2023-03-01T06:30:59;0.30;99.90
17202;DHT22;8717;53.588;10.176;2023-03-01T06:33:26;0.30;99.90
17202;DHT22;8717;53.588;10.176;2023-03-01T06:35:54;0.30;99.90
17202;DHT22;8717;53.588;10.176;2023-03-01T06:38:22;0.40;99.90
17202;DHT22;8717;53.588;10.176;2023-03-01T06:40:52;0.40;99.90
17202;DHT22;8717;53.588;10.176;2023-03-01T06:43:19;0.40;99.90
17202;DHT22;8717;53.588;10.176;2023-03-01T06:45:48;0.50;99.90
17202;DHT22;8717;53.588;10.176;2023-03-01T06:48:17;0.60;99.90
17202;DHT22;8717;53.588;10.176;2023-03-01T06:50:44;0.60;99.90
17202;DHT22;8717;53.588;10.176;2023-03-01T06:53:11;0.60;99.90
17202;DHT22;8717;53.588;10.176;2023-03-01T06:55:39;0.70;99.90
17202;DHT22;8717;53.588;10.176;2023-03-01T06:58:06;0.70;99.90
17202;DHT22;8717;53.588;10.176;2023-03-01T07:00:33;0.80;99.90
17202;DHT22;8717;53.588;10.176;2023-03-01T07:03:01;0.80;99.90
17202;DHT22;8717;53.588;10.176;2023-03-01T07:05:29;0.90;99.90
17202;DHT22;8717;53.588;10.176;2023-03-01T07:07:55;1.00;99.90
17202;DHT22;8717;53.588;10.176;2023-03-01T07:10:22;1.00;99.90
17202;DHT22;8717;53.588;10.176;2023-03-01T07:12:53;1.00;99.90
17202;DHT22;8717;53.588;10.176;2023-03-01T07:15:20;1.10;99.90
17202;DHT22;8717;53.588;10.176;2023-03-01T07:17:46;1.10;99.90
17202;DHT22;8717;53.588;10.176;2023-03-01T07:20:16;1.20;99.90
17202;DHT22;8717;53.588;10.176;2023-03-01T07:22:43;1.20;99.90
17202;DHT22;8717;53.588;10.176;2023-03-01T07:25:10;1.30;99.90
17202;DHT22;8717;53.588;10.176;2023-03-01T07:27:37;1.40;99.90
17202;DHT22;8717;53.588;10.176;2023-03-01T07:30:06;1.50;99.90
17202;DHT22;8717;53.588;10.176;2023-03-01T07:32:33;1.60;99.90
17202;DHT22;8717;53.588;10.176;2023-03-01T07:35:00;1.80;99.90
17202;DHT22;8717;53.588;10.176;2023-03-01T07:37:26;1.90;99.90
17202;DHT22;8717;53.588;10.176;2023-03-01T07:39:53;2.00;99.90
17202;DHT22;8717;53.588;10.176;2023-03-01T07:42:20;2.10;99.90
17202;DHT22;8717;53.588;10.176;2023-03-01T07:44:46;2.20;99.90
17202;DHT22;8717;53.588;10.176;2023-03-01T07:47:14;2.30;99.90
17202;DHT22;8717;53.588;10.176;2023-03-01T07:49:41;2.40;99.90
17202;DHT22;8717;53.588;10.176;2023-03-01T07:52:10;2.50;99.90
17202;DHT22;8717;53.588;10.176;2023-03-01T07:54:37;2.60;99.90
17202;DHT22;8717;53.588;10.176;2023-03-01T07:57:04;2.70;99.90
17202;DHT22;8717;53.588;10.176;2023-03-01T07:59:30;2.80;99.90
17202;DHT22;8717;53.588;10.176;2023-03-01T08:01:58;2.90;99.90
17202;DHT22;8717;53.588;10.176;2023-03-01T08:04:26;3.00;99.90
17202;DHT22;8717;53.588;10.176;2023-03-01T08:06:53;3.10;99.90
17202;DHT22;8717;53.588;10.176;2023-03-01T08:09:20;3.20;99.90
17202;DHT22;8717;53.588;10.176;2023-03-01T08:11:47;3.30;99.90
17202;DHT22;8717;53.588;10.176;2023-03-01T08:14:13;3.40;99.90
17202;DHT22;8717;53.588;10.176;2023-03-01T08:16:40;3.50;99.90
17202;DHT22;8717;53.588;10.176;2023-03-01T08:19:09;3.60;99.90
17202;DHT22;8717;53.588;10.176;2023-03-01T08:21:38;3.70;99.90
17202;DHT22;8717;53.588;10.176;2023-03-01T08:24:06;3.90;99.90
17202;DHT22;8717;53.588;10.176;2023-03-01T08:26:33;4.00;99.90
17202;DHT22;8717;53.588;10.176;2023-03-01T08:29:00;4.10;99.90
17202;DHT22;8717;53.588;10.176;2023-03-01T08:31:29;4.20;99.90
17202;DHT22;8717;53.588;10.176;2023-03-01T08:33:58;4.30;99.90
17202;DHT22;8717;53.588;10.176;2023-03-01T08:36:29;4.40;99.90
17202;DHT22;8717;53.588;10.176;2023-03-01T08:38:58;4.40;99.90
17202;DHT22;8717;53.588;10.176;2023-03-01T08:41:25;4.50;99.90
17202;DHT22;8717;53.588;10.176;2023-03-01T08:43:52;4.60;99.90
17202;DHT22;8717;53.588;10.176;2023-03-01T08:46:24;4.70;99.90
17202;DHT22;8717;53.588;10.176;2023-03-01T08:48:50;4.80;99.90
17202;DHT22;8717;53.588;10.176;2023-03-01T08:51:18;4.90;99.90
17202;DHT22;8717;53.588;10.176;2023-03-01T08:53:46;5.00;99.90
17202;DHT22;8717;53.588;10.176;2023-03-01T08:56:17;5.10;99.90
17202;DHT22;8717;53.588;10.176;2023-03-01T08:58:45;5.30;99.90
17202;DHT22;8717;53.588;10.176;2023-03-01T09:01:14;5.50;99.90
17202;DHT22;8717;53.588;10.176;2023-03-01T09:03:41;5.50;99.90
17202;DHT22;8717;53.588;10.176;2023-03-01T09:06:08;5.70;99.90
17202;DHT22;8717;53.588;10.176;2023-03-01T09:08:36;5.80;99.90
17202;DHT22;8717;53.588;10.176;2023-03-01T09:11:04;5.90;99.90
17202;DHT22;8717;53.588;10.176;2023-03-01T09:13:33;6.10;99.90
17202;DHT22;8717;53.588;10.176;2023-03-01T09:16:02;6.20;99.90
17202;DHT22;8717;53.588;10.176;2023-03-01T09:18:29;6.40;99.90
17202;DHT22;8717;53.588;10.176;2023-03-01T09:21:01;6.70;99.90
17202;DHT22;8717;53.588;10.176;2023-03-01T09:23:33;7.00;99.90
17202;DHT22;8717;53.588;10.176;2023-03-01T09:26:01;7.30;99.70
17202;DHT22;8717;53.588;10.176;2023-03-01T09:28:28;7.50;99.30
17202;DHT22;8717;53.588;10.176;2023-03-01T09:30:59;7.70;98.90
17202;DHT22;8717;53.588;10.176;2023-03-01T09:33:25;7.70;98.40
17202;DHT22;8717;53.588;10.176;2023-03-01T09:35:56;7.80;98.40
17202;DHT22;8717;53.588;10.176;2023-03-01T09:38:23;7.80;97.70
17202;DHT22;8717;53.588;10.176;2023-03-01T09:40:49;7.80;97.90
17202;DHT22;8717;53.588;10.176;2023-03-01T09:43:21;7.80;97.80
17202;DHT22;8717;53.588;10.176;2023-03-01T09:45:50;7.80;97.70
17202;DHT22;8717;53.588;10.176;2023-03-01T09:48:22;7.90;97.90
17202;DHT22;8717;53.588;10.176;2023-03-01T09:50:50;8.00;98.20
17202;DHT22;8717;53.588;10.176;2023-03-01T09:53:19;8.10;97.90
17202;DHT22;8717;53.588;10.176;2023-03-01T09:55:50;8.30;97.80
17202;DHT22;8717;53.588;10.176;2023-03-01T09:58:34;8.50;97.70
17202;DHT22;8717;53.588;10.176;2023-03-01T10:01:16;8.80;97.50
17202;DHT22;8717;53.588;10.176;2023-03-01T10:03:58;9.10;97.40
17202;DHT22;8717;53.588;10.176;2023-03-01T10:06:26;9.40;97.20
17202;DHT22;8717;53.588;10.176;2023-03-01T10:08:55;9.70;97.20
17202;DHT22;8717;53.588;10.176;2023-03-01T10:11:25;10.00;96.80
17202;DHT22;8717;53.588;10.176;2023-03-01T10:13:59;10.30;96.30
17202;DHT22;8717;53.588;10.176;2023-03-01T10:16:34;10.50;95.80
17202;DHT22;8717;53.588;10.176;2023-03-01T10:19:06;10.70;95.40
17202;DHT22;8717;53.588;10.176;2023-03-01T10:21:42;10.90;95.10
17202;DHT22;8717;53.588;10.176;2023-03-01T10:24:12;11.00;94.80
17202;DHT22;8717;53.588;10.176;2023-03-01T10:26:48;11.20;94.90
17202;DHT22;8717;53.588;10.176;2023-03-01T10:29:16;11.40;94.30
17202;DHT22;8717;53.588;10.176;2023-03-01T10:31:46;11.60;94.80
17202;DHT22;8717;53.588;10.176;2023-03-01T10:34:17;11.70;94.20
17202;DHT22;8717;53.588;10.176;2023-03-01T10:36:47;11.80;93.90
17202;DHT22;8717;53.588;10.176;2023-03-01T10:39:16;11.90;93.60
17202;DHT22;8717;53.588;10.176;2023-03-01T10:41:56;11.90;93.40
17202;DHT22;8717;53.588;10.176;2023-03-01T10:44:41;11.80;93.00
17202;DHT22;8717;53.588;10.176;2023-03-01T10:47:17;11.60;92.80
17202;DHT22;8717;53.588;10.176;2023-03-01T10:50:01;11.50;93.00
17202;DHT22;8717;53.588;10.176;2023-03-01T10:52:31;11.40;92.80
17202;DHT22;8717;53.588;10.176;2023-03-01T10:55:00;11.40;93.00
17202;DHT22;8717;53.588;10.176;2023-03-01T10:57:34;11.30;93.10
17202;DHT22;8717;53.588;10.176;2023-03-01T11:00:19;11.20;93.10
17202;DHT22;8717;53.588;10.176;2023-03-01T11:02:48;11.20;92.70
17202;DHT22;8717;53.588;10.176;2023-03-01T11:05:21;11.10;92.90
17202;DHT22;8717;53.588;10.176;2023-03-01T11:07:51;11.10;93.10
17202;DHT22;8717;53.588;10.176;2023-03-01T11:10:23;11.10;93.30
17202;DHT22;8717;53.588;10.176;2023-03-01T11:12:51;11.20;93.30
17202;DHT22;8717;53.588;10.176;2023-03-01T11:15:25;11.30;93.80
17202;DHT22;8717;53.588;10.176;2023-03-01T11:17:53;11.40;93.60
17202;DHT22;8717;53.588;10.176;2023-03-01T11:20:28;11.60;93.80
17202;DHT22;8717;53.588;10.176;2023-03-01T11:22:59;11.70;93.60
17202;DHT22;8717;53.588;10.176;2023-03-01T11:25:30;11.90;93.40
17202;DHT22;8717;53.588;10.176;2023-03-01T11:27:59;12.10;93.20
17202;DHT22;8717;53.588;10.176;2023-03-01T11:30:31;12.20;92.90
17202;DHT22;8717;53.588;10.176;2023-03-01T11:33:11;12.30;92.10
17202;DHT22;8717;53.588;10.176;2023-03-01T11:35:46;12.40;92.50
17202;DHT22;8717;53.588;10.176;2023-03-01T11:38:20;12.40;92.30
17202;DHT22;8717;53.588;10.176;2023-03-01T11:40:52;12.50;92.10
17202;DHT22;8717;53.588;10.176;2023-03-01T11:43:25;12.60;92.90
17202;DHT22;8717;53.588;10.176;2023-03-01T11:52:03;13.00;92.10
17202;DHT22;8717;53.588;10.176;2023-03-01T11:54:42;13.10;91.70
17202;DHT22;8717;53.588;10.176;2023-03-01T11:57:20;13.20;91.40
17202;DHT22;8717;53.588;10.176;2023-03-01T12:00:07;13.30;91.30
17202;DHT22;8717;53.588;10.176;2023-03-01T12:03:02;13.40;90.90
17202;DHT22;8717;53.588;10.176;2023-03-01T12:05:48;13.40;90.90
17202;DHT22;8717;53.588;10.176;2023-03-01T12:08:23;13.50;91.10
17202;DHT22;8717;53.588;10.176;2023-03-01T12:10:57;13.60;90.70
17202;DHT22;8717;53.588;10.176;2023-03-01T12:13:59;13.70;90.80
17202;DHT22;8717;53.588;10.176;2023-03-01T12:19:33;13.70;90.20
17202;DHT22;8717;53.588;10.176;2023-03-01T12:22:13;13.70;90.40
17202;DHT22;8717;53.588;10.176;2023-03-01T12:24:58;13.60;90.50
17202;DHT22;8717;53.588;10.176;2023-03-01T12:27:57;13.50;89.50
17202;DHT22;8717;53.588;10.176;2023-03-01T12:30:35;13.40;89.30
17202;DHT22;8717;53.588;10.176;2023-03-01T12:33:17;13.30;88.20
17202;DHT22;8717;53.588;10.176;2023-03-01T12:35:58;13.10;89.40
17202;DHT22;8717;53.588;10.176;2023-03-01T12:38:33;13.00;89.10
17202;DHT22;8717;53.588;10.176;2023-03-01T12:41:31;12.80;89.50
17202;DHT22;8717;53.588;10.176;2023-03-01T12:44:10;12.70;90.40
17202;DHT22;8717;53.588;10.176;2023-03-01T12:46:47;12.60;90.10
17202;DHT22;8717;53.588;10.176;2023-03-01T12:49:23;12.50;90.20
17202;DHT22;8717;53.588;10.176;2023-03-01T12:51:55;12.50;90.20
17202;DHT22;8717;53.588;10.176;2023-03-01T12:54:26;12.40;90.20
17202;DHT22;8717;53.588;10.176;2023-03-01T12:56:57;12.40;90.10
17202;DHT22;8717;53.588;10.176;2023-03-01T12:59:31;12.30;89.80
17202;DHT22;8717;53.588;10.176;2023-03-01T13:02:05;12.20;90.10
17202;DHT22;8717;53.588;10.176;2023-03-01T13:04:45;12.10;90.40
17202;DHT22;8717;53.588;10.176;2023-03-01T13:07:23;12.00;90.20
17202;DHT22;8717;53.588;10.176;2023-03-01T13:09:57;11.80;90.20
17202;DHT22;8717;53.588;10.176;2023-03-01T13:12:59;11.70;90.10
17202;DHT22;8717;53.588;10.176;2023-03-01T13:15:33;11.60;90.10
17202;DHT22;8717;53.588;10.176;2023-03-01T13:18:02;11.50;89.90
17202;DHT22;8717;53.588;10.176;2023-03-01T13:20:34;11.40;89.30
17202;DHT22;8717;53.588;10.176;2023-03-01T13:23:13;11.30;89.30
17202;DHT22;8717;53.588;10.176;2023-03-01T13:26:05;11.20;89.30
17202;DHT22;8717;53.588;10.176;2023-03-01T13:28:52;11.00;89.10
17202;DHT22;8717;53.588;10.176;2023-03-01T13:34:43;10.90;90.20
17202;DHT22;8717;53.588;10.176;2023-03-01T13:37:13;10.90;90.40
17202;DHT22;8717;53.588;10.176;2023-03-01T13:39:44;10.90;90.60
17202;DHT22;8717;53.588;10.176;2023-03-01T13:42:34;10.90;90.90
17202;DHT22;8717;53.588;10.176;2023-03-01T13:45:16;10.90;90.70
17202;DHT22;8717;53.588;10.176;2023-03-01T13:47:45;10.90;90.60
17202;DHT22;8717;53.588;10.176;2023-03-01T13:50:18;10.90;90.70
17202;DHT22;8717;53.588;10.176;2023-03-01T13:52:49;10.90;90.30
17202;DHT22;8717;53.588;10.176;2023-03-01T13:55:20;10.80;90.20
17202;DHT22;8717;53.588;10.176;2023-03-01T13:57:49;10.80;90.00
17202;DHT22;8717;53.588;10.176;2023-03-01T14:00:29;10.70;89.60
17202;DHT22;8717;53.588;10.176;2023-03-01T14:03:04;10.60;87.90
17202;DHT22;8717;53.588;10.176;2023-03-01T14:05:31;10.50;88.10
17202;DHT22;8717;53.588;10.176;2023-03-01T14:07:58;10.40;86.80
17202;DHT22;8717;53.588;10.176;2023-03-01T14:10:31;10.20;84.50
17202;DHT22;8717;53.588;10.176;2023-03-01T14:13:09;10.00;84.80
17202;DHT22;8717;53.588;10.176;2023-03-01T14:15:44;9.90;87.90
17202;DHT22;8717;53.588;10.176;2023-03-01T14:18:16;9.80;87.80
17202;DHT22;8717;53.588;10.176;2023-03-01T14:20:46;9.80;88.10
17202;DHT22;8717;53.588;10.176;2023-03-01T14:23:18;9.80;87.80
17202;DHT22;8717;53.588;10.176;2023-03-01T14:25:50;9.80;87.40
17202;DHT22;8717;53.588;10.176;2023-03-01T14:28:19;9.80;87.10
17202;DHT22;8717;53.588;10.176;2023-03-01T14:30:49;9.80;86.40
17202;DHT22;8717;53.588;10.176;2023-03-01T14:33:22;9.70;86.40
17202;DHT22;8717;53.588;10.176;2023-03-01T14:35:54;9.70;86.00
17202;DHT22;8717;53.588;10.176;2023-03-01T14:38:23;9.60;86.60
17202;DHT22;8717;53.588;10.176;2023-03-01T14:40:52;9.60;87.60
17202;DHT22;8717;53.588;10.176;2023-03-01T14:43:22;9.50;87.60
17202;DHT22;8717;53.588;10.176;2023-03-01T14:45:51;9.40;87.90
17202;DHT22;8717;53.588;10.176;2023-03-01T14:48:19;9.40;88.20
17202;DHT22;8717;53.588;10.176;2023-03-01T14:50:46;9.30;88.00
17202;DHT22;8717;53.588;10.176;2023-03-01T14:53:17;9.20;89.00
17202;DHT22;8717;53.588;10.176;2023-03-01T14:55:47;9.20;89.40
17202;DHT22;8717;53.588;10.176;2023-03-01T14:58:19;9.10;89.00
17202;DHT22;8717;53.588;10.176;2023-03-01T15:00:50;9.10;89.20
17202;DHT22;8717;53.588;10.176;2023-03-01T15:03:25;9.00;89.20
17202;DHT22;8717;53.588;10.176;2023-03-01T15:05:55;9.00;89.30
17202;DHT22;8717;53.588;10.176;2023-03-01T15:08:24;8.90;89.50
17202;DHT22;8717;53.588;10.176;2023-03-01T15:10:59;8.80;90.00
17202;DHT22;8717;53.588;10.176;2023-03-01T15:13:30;8.80;90.00
17202;DHT22;8717;53.588;10.176;2023-03-01T15:16:04;8.70;90.10
17202;DHT22;8717;53.588;10.176;2023-03-01T15:18:32;8.70;90.30
17202;DHT22;8717;53.588;10.176;2023-03-01T15:21:06;8.60;90.60
17202;DHT22;8717;53.588;10.176;2023-03-01T15:23:34;8.60;90.70
17202;DHT22;8717;53.588;10.176;2023-03-01T15:26:02;8.60;90.80
17202;DHT22;8717;53.588;10.176;2023-03-01T15:28:30;8.50;90.90
17202;DHT22;8717;53.588;10.176;2023-03-01T15:31:01;8.50;91.30
17202;DHT22;8717;53.588;10.176;2023-03-01T15:33:32;8.40;91.40
17202;DHT22;8717;53.588;10.176;2023-03-01T15:36:00;8.40;91.50
17202;DHT22;8717;53.588;10.176;2023-03-01T15:38:33;8.30;91.70
17202;DHT22;8717;53.588;10.176;2023-03-01T15:41:02;8.30;91.80
17202;DHT22;8717;53.588;10.176;2023-03-01T15:43:41;8.20;92.20
17202;DHT22;8717;53.588;10.176;2023-03-01T15:46:17;8.20;92.10
17202;DHT22;8717;53.588;10.176;2023-03-01T15:48:47;8.20;92.20
17202;DHT22;8717;53.588;10.176;2023-03-01T15:51:16;8.10;92.20
17202;DHT22;8717;53.588;10.176;2023-03-01T15:53:47;8.10;92.50
17202;DHT22;8717;53.588;10.176;2023-03-01T15:56:15;8.10;92.70
17202;DHT22;8717;53.588;10.176;2023-03-01T15:58:42;8.00;92.70
17202;DHT22;8717;53.588;10.176;2023-03-01T16:01:11;8.00;92.70
17202;DHT22;8717;53.588;10.176;2023-03-01T16:03:39;7.90;92.90
17202;DHT22;8717;53.588;10.176;2023-03-01T16:06:09;7.90;92.70
17202;DHT22;8717;53.588;10.176;2023-03-01T16:08:35;7.80;93.00
17202;DHT22;8717;53.588;10.176;2023-03-01T16:11:03;7.70;93.30
17202;DHT22;8717;53.588;10.176;2023-03-01T16:13:31;7.60;93.40
17202;DHT22;8717;53.588;10.176;2023-03-01T16:15:58;7.50;93.50